Погода Боченкана 2 недели

Люблинское воеводство, Польша

18 - 30 мая
  • 18мая
    Сегодня
    +8°
    +24°
    Ясно и безоблачно
    ВремяПогодаТемператураВлажностьДавлениеВетер, м/сВероятность осадков
    02:00Ясно и безоблачно+10°C58 %749 мм3.5 м/с2 %
    05:00Ясно и безоблачно+8°C65 %749 мм3.1 м/с2 %
    08:00Ясно и безоблачно+16°C51 %749 мм3.3 м/с2 %
    11:00Ясно и безоблачно+21°C35 %749 мм5.8 м/с2 %
    14:00Ясно и безоблачно+23°C31 %748 мм5.5 м/с2 %
    17:00Ясно и безоблачно+23°C29 %747 мм4.9 м/с3 %
    20:00Ясно и безоблачно+19°C34 %747 мм3.7 м/с2 %
    23:00Ясно и безоблачно+12°C62 %747 мм2.3 м/с2 %
  • 19мая
    Воскресенье
    +9°
    +24°
    Облачно с прояснениями
    ВремяПогодаТемператураВлажностьДавлениеВетер, м/сВероятность осадков
    02:00Ясно и безоблачно+9°C84 %747 мм1.9 м/с2 %
    05:00Ясно и безоблачно+7°C83 %747 мм2.0 м/с2 %
    08:00Практически безоблачно+16°C61 %747 мм2.2 м/с2 %
    11:00Облачно с прояснениями+21°C46 %747 мм3.1 м/с9 %
    14:00Облачно с прояснениями+23°C42 %746 мм2.1 м/с16 %
    17:00Облачно с прояснениями+23°C40 %745 мм1.9 м/с22 %
    20:00Небольшая облачность+19°C59 %745 мм3.1 м/с37 %
    23:00Практически безоблачно+14°C79 %745 мм2.1 м/с7 %
  • 20мая
    Понедельник
    +11°
    +25°
    Пасмурно, небольшой дождь
    ВремяПогодаТемператураВлажностьДавлениеВетер, м/сВероятность осадков
    02:00Облачно с прояснениями+11°C93 %745 мм2.0 м/с5 %
    05:00Практически безоблачно+10°C97 %745 мм1.6 м/с10 %
    08:00Облачно с прояснениями+17°C82 %746 мм1.1 м/с19 %
    11:00Практически безоблачно+22°C62 %746 мм0.6 м/с38 %
    14:00Пасмурно, небольшой дождь+24°C49 %746 мм1.4 м/с51 %
    17:00Небольшая облачность+24°C50 %746 мм1.4 м/с48 %
    20:00Практически безоблачно+20°C73 %746 мм1.2 м/с21 %
    23:00Небольшая облачность+15°C91 %747 мм1.8 м/с6 %
  • 21мая
    Вторник
    +13°
    +28°
    Ясно и безоблачно
    ВремяПогодаТемператураВлажностьДавлениеВетер, м/сВероятность осадков
    02:00Облачно с прояснениями+12°C97 %746 мм1.8 м/с2 %
    05:00Ясно и безоблачно+11°C99 %747 мм2.0 м/с2 %
    08:00Ясно и безоблачно+18°C79 %748 мм2.1 м/с2 %
    11:00Ясно и безоблачно+24°C50 %747 мм1.6 м/с22 %
    14:00Ясно и безоблачно+26°C42 %747 мм2.0 м/с22 %
    17:00Ясно и безоблачно+26°C42 %746 мм3.2 м/с21 %
    20:00Ясно и безоблачно+23°C55 %746 мм4.2 м/с8 %
    23:00Ясно и безоблачно+17°C74 %745 мм3.8 м/с6 %
Мы используем cookies
Соглашаюсь